Ana Sayfa
METAR-TAF:

METAR-TAF

Havaalanları :

Gobabis, Namibya

Enlem: 22-30-20S, Boylam: 18-58-30E, yükseklik: 1468 m

Güncel hava durumu gözlemi

Rapor saat 22:00 UTC de 1 saat ve 7 dakika önce yapıldı.
Rüzgar güney/güneydoğudan 2 kt
Sıcaklık 20°C
Nem 13%
Basınç 1023 hPa

METAR: FYGB 152200Z AUTO 16002KT //// // ////// 20/M09 Q1023

Saat: 01:07 (23:07 UTC)


TAF: eksik

4.000'den fazla havaalanı için hava durumu gözlemleri ve tahminleri (METAR ve TAF raporları).

Kullanılabilir istasyonlar harita üzerinde sarı ve kırmızı noktalarla gösterilir.

İstasyonun adını görmek için fareyi noktanın üzerinde gezdirin.

Sonrasında hava gözlem ve tahminlerini görmek için tıklayın.

Haritayı değiştirmek için: yaklaştırmak için siyah artı işaretli yeşil düğmeye ve uzaklaştırmak için de eksi işaretli düğmeye hızla tıklayın; bitişik haritalar için yeşil okları kullanın.


METAR-TAF: